Mont Saint Michel — FNMT — position and weather

sailwx.info

Track history (hours):
 
Tides and Currents Weather Stations Pressure Air Temp Water Temp Dewpoint Dewpoint Depression Visibility Wind Speed Wind Dir Waves Ship Positions

Mont Saint Michel

Last reported at 2014-Jul-29 16:33 UTC. Time now 2014-Jul-29 16:53 UTC.
Position N 49°48' W 000°31'.

Length 173 m; beam 29 m.

Type: Ship. MMSI: 227023100.

Date/timePositionNaut miles runAvg speedWind from/ knotsBaromVisibWave heightAir tempDewpointWater temp
2014-Jul-29 16:33N 49°48' W 000°31'2221.8
2014-Jul-29 15:33N 49°28' W 000°18'1111.0
2014-Jul-29 14:33N 49°17' W 000°15'0 0.0
2014-Jul-29 13:33N 49°17' W 000°15'2 1.9
2014-Jul-29 12:34N 49°19' W 000°15'2019.9
2014-Jul-29 11:33N 49°38' W 000°23'4519.1
2014-Jul-29 09:11N 50°21' W 000°49'1320.2
2014-Jul-29 08:33N 50°32' W 000°56'1716.6
2014-Jul-29 07:34N 50°47' W 001°07'1 1.3
2014-Jul-29 06:34N 50°49' W 001°06'0 0.4
2014-Jul-29 05:33N 50°49' W 001°06'1313.4
2014-Jul-29 04:33N 50°36' W 000°58'1212.3
2014-Jul-29 03:33N 50°24' W 000°55'1111.2
2014-Jul-29 02:33N 50°15' W 000°45'2411.9
2014-Jul-29 00:33N 49°53' W 000°29'1111.2
2014-Jul-28 23:33N 49°43' W 000°26'1110.5
2014-Jul-28 22:33N 49°33' W 000°20'1110.8
2014-Jul-28 21:33N 49°22' W 000°15'5 5.0
2014-Jul-28 20:33N 49°17' W 000°15'0 0.0
2014-Jul-28 19:33N 49°17' W 000°15'1212.3
2014-Jul-28 18:33N 49°29' W 000°19'2019.8
2014-Jul-28 17:33N 49°47' W 000°32'3718.8
2014-Jul-28 15:33N 50°22' W 000°53'1919.0
2014-Jul-28 14:33N 50°41' W 001°01'9 8.6
2014-Jul-28 13:33N 50°49' W 001°06'0 0.0
2014-Jul-28 12:33N 50°49' W 001°06'3 3.3
2014-Jul-28 11:34N 50°45' W 001°05'5919.6
2014-Jul-28 08:33N 49°51' W 000°30'1919.4
2014-Jul-28 07:34N 49°33' W 000°20'1615.7
2014-Jul-28 06:33N 49°17' W 000°15'0 0.0
2014-Jul-28 05:33N 49°17' W 000°15'0 0.1
2014-Jul-28 04:33N 49°17' W 000°15'1817.7
2014-Jul-28 03:33N 49°34' W 000°23'1916.0
2014-Jul-28 02:23N 49°52' W 000°31'1011.5
2014-Jul-28 01:33N 50°01' W 000°36'3115.2
2014-Jul-27 23:31N 50°30' W 000°52'1515.6
2014-Jul-27 22:33N 50°44' W 001°03'5 5.5
2014-Jul-27 21:34N 50°49' W 001°06'0 0.0
2014-Jul-27 20:33N 50°49' W 001°06'5 4.9
2014-Jul-27 19:33N 50°44' W 001°03'1818.0
2014-Jul-27 18:34N 50°28' W 000°51'1918.8
2014-Jul-27 17:34N 50°10' W 000°42'1919.3
2014-Jul-27 16:34N 49°52' W 000°32'1919.4
2014-Jul-27 15:34N 49°34' W 000°21'1716.8
2014-Jul-27 14:33N 49°17' W 000°15'0 0.1
2014-Jul-27 13:33N 49°17' W 000°15'2 2.3
2014-Jul-27 12:33N 49°20' W 000°14'2020.0
2014-Jul-27 11:34N 49°38' W 000°24'4720.0
2014-Jul-27 09:14N 50°22' W 000°49'1319.8
2014-Jul-27 08:34N 50°35' W 000°57'1515.1
2014-Jul-27 07:33N 50°49' W 001°07'0 0.5
2014-Jul-27 06:33N 50°49' W 001°06'0 0.1
2014-Jul-27 05:34N 50°49' W 001°06'1212.2
2014-Jul-27 04:33N 50°38' W 000°58'1211.6
2014-Jul-27 03:33N 50°27' W 000°51'1111.3
2014-Jul-27 02:33N 50°16' W 000°46'1111.4
2014-Jul-27 01:33N 50°05' W 000°40'1211.8
2014-Jul-27 00:33N 49°54' W 000°34'1211.6
2014-Jul-26 23:33N 49°43' W 000°28'1110.9
2014-Jul-26 22:33N 49°33' W 000°22'1111.1
2014-Jul-26 21:33N 49°23' W 000°16'5 5.3
2014-Jul-26 20:33N 49°17' W 000°15'0 0.0
2014-Jul-26 19:33N 49°17' W 000°15'1211.7
2014-Jul-26 18:33N 49°29' W 000°18'2121.0
2014-Jul-26 17:33N 49°49' W 000°29'2220.3
2014-Jul-26 16:28N 50°09' W 000°42'1719.3
2014-Jul-26 15:34N 50°25' W 000°53'1918.7
2014-Jul-26 14:34N 50°43' W 001°01'6 6.4
2014-Jul-26 13:33N 50°49' W 001°06'0 0.0
2014-Jul-26 12:33N 50°49' W 001°06'3 3.5
2014-Jul-26 11:34N 50°45' W 001°05'2120.3
2014-Jul-26 10:32N 50°26' W 000°53'2119.6
2014-Jul-26 09:28N 50°07' W 000°40'1719.1
2014-Jul-26 08:33N 49°50' W 000°31'1919.1
2014-Jul-26 07:33N 49°32' W 000°21'1615.6
2014-Jul-26 06:33N 49°17' W 000°15'0 0.0
2014-Jul-26 05:34N 49°17' W 000°15'0 0.1
2014-Jul-26 04:34N 49°17' W 000°15'1716.5
2014-Jul-26 03:33N 49°33' W 000°22'1716.9
2014-Jul-26 02:33N 49°48' W 000°33'1312.7
2014-Jul-26 01:33N 50°01' W 000°39'1514.4
2014-Jul-26 00:30N 50°15' W 000°44'1717.8
2014-Jul-25 23:33N 50°31' W 000°52'1615.8
2014-Jul-25 22:34N 50°45' W 001°05'4 4.0
2014-Jul-25 21:34N 50°49' W 001°06'0 0.0
2014-Jul-25 20:33N 50°49' W 001°06'4 4.2
2014-Jul-25 19:34N 50°45' W 001°05'1818.3
2014-Jul-25 18:34N 50°28' W 000°52'2020.2
2014-Jul-25 17:34N 50°09' W 000°40'2120.6
2014-Jul-25 16:34N 49°50' W 000°29'1919.3
2014-Jul-25 15:34N 49°32' W 000°20'1514.6
2014-Jul-25 14:33N 49°17' W 000°15'0 0.0
2014-Jul-25 13:33N 49°17' W 000°15'1 1.1
2014-Jul-25 12:33N 49°18' W 000°15'1918.5
2014-Jul-25 11:34N 49°36' W 000°23'2019.2
2014-Jul-25 10:32N 49°54' W 000°34'2519.6
2014-Jul-25 09:15N 50°18' W 000°48'1420.0
2014-Jul-25 08:32N 50°32' W 000°55'1717.6
2014-Jul-25 07:33N 50°47' W 001°06'2 1.6
2014-Jul-25 06:34N 50°49' W 001°06'0 0.1
2014-Jul-25 05:34N 50°49' W 001°06'1111.5
2014-Jul-25 04:33N 50°38' W 000°58'1211.6
2014-Jul-25 03:33N 50°27' W 000°52'1211.6
2014-Jul-25 02:31N 50°16' W 000°46'1111.9
2014-Jul-25 01:33N 50°05' W 000°41'1312.4
2014-Jul-25 00:32N 49°53' W 000°34'1212.3
2014-Jul-24 23:34N 49°42' W 000°28'1212.2
2014-Jul-24 22:33N 49°30' W 000°21'1211.7
2014-Jul-24 21:33N 49°19' W 000°15'2 2.0
2014-Jul-24 20:33N 49°17' W 000°15'0 0.0
2014-Jul-24 19:33N 49°17' W 000°15'1615.7
2014-Jul-24 18:33N 49°33' W 000°20'2221.7
2014-Jul-24 17:33N 49°52' W 000°36'2221.5
2014-Jul-24 16:33N 50°11' W 000°50'2121.1
2014-Jul-24 15:33N 50°32' W 000°52'1817.9
2014-Jul-24 14:34N 50°48' W 001°07'1 1.3
2014-Jul-24 13:34N 50°49' W 001°06'0 0.0
2014-Jul-24 12:34N 50°49' W 001°06'4 3.8
2014-Jul-24 11:33N 50°45' W 001°05'2019.4
2014-Jul-24 10:30N 50°27' W 000°51'1819.2
2014-Jul-24 09:33N 50°09' W 000°41'1919.2
2014-Jul-24 08:33N 49°52' W 000°31'1918.9
2014-Jul-24 07:33N 49°34' W 000°20'1716.8
2014-Jul-24 06:33N 49°17' W 000°15'0 0.1
2014-Jul-24 05:33N 49°17' W 000°15'0 0.1
2014-Jul-24 04:33N 49°17' W 000°15'1716.7
2014-Jul-24 03:34N 49°33' W 000°22'1716.7
2014-Jul-24 02:34N 49°49' W 000°32'1716.6
2014-Jul-24 01:31N 50°05' W 000°41'1816.9
2014-Jul-24 00:27N 50°22' W 000°51'1617.3
2014-Jul-23 23:34N 50°37' W 000°58'1312.8
2014-Jul-23 22:33N 50°48' W 001°07'1 0.9
2014-Jul-23 21:33N 50°49' W 001°06'0 0.0
2014-Jul-23 20:34N 50°49' W 001°06'5 4.9
2014-Jul-23 19:34N 50°44' W 001°04'1717.4
2014-Jul-23 18:33N 50°28' W 000°53'1918.8
2014-Jul-23 17:33N 50°10' W 000°42'1918.6
2014-Jul-23 16:33N 49°53' W 000°33'1918.7
2014-Jul-23 15:33N 49°35' W 000°23'1818.0
2014-Jul-23 14:33N 49°18' W 000°15'1 0.8
2014-Jul-23 13:34N 49°17' W 000°15'0 0.0
2014-Jul-23 12:34N 49°17' W 000°15'0 0.0
2014-Jul-23 11:33N 49°17' W 000°15'0 0.0
2014-Jul-23 10:33N 49°17' W 000°15'0 0.0
2014-Jul-23 09:33N 49°17' W 000°15'0 0.0
2014-Jul-23 08:33N 49°17' W 000°15'0 0.0
2014-Jul-23 07:34N 49°17' W 000°15'0 0.0
2014-Jul-23 06:33N 49°17' W 000°15'0 0.0
2014-Jul-23 05:33N 49°17' W 000°15'9 8.8
2014-Jul-23 04:33N 49°26' W 000°18'1313.2
2014-Jul-23 03:33N 49°38' W 000°24'1312.6
2014-Jul-23 02:33N 49°50' W 000°30'1712.2
2014-Jul-23 01:08N 50°07' W 000°40'1114.8
2014-Jul-23 00:25N 50°17' W 000°46'1416.8
2014-Jul-22 23:33N 50°30' W 000°54'1514.9
2014-Jul-22 22:34N 50°44' W 001°03'5 5.2
2014-Jul-22 21:34N 50°49' W 001°06'0 0.0
2014-Jul-22 20:34N 50°49' W 001°06'4 3.6
2014-Jul-22 19:34N 50°45' W 001°05'1919.4
2014-Jul-22 18:34N 50°27' W 000°53'2420.4
2014-Jul-22 17:24N 50°05' W 000°41'1719.9
2014-Jul-22 16:33N 49°49' W 000°31'2020.1
2014-Jul-22 15:34N 49°31' W 000°19'1413.9
2014-Jul-22 14:33N 49°17' W 000°15'0 0.0
2014-Jul-22 13:33N 49°17' W 000°15'2 2.2
2014-Jul-22 12:33N 49°20' W 000°14'2020.2
2014-Jul-22 11:34N 49°39' W 000°24'6020.0
2014-Jul-22 08:34N 50°35' W 000°56'1515.0
2014-Jul-22 07:33N 50°49' W 001°06'0 0.0
2014-Jul-22 06:33N 50°49' W 001°06'0 0.1
2014-Jul-22 05:34N 50°49' W 001°06'1313.3
2014-Jul-22 04:34N 50°36' W 000°58'1111.4
2014-Jul-22 03:34N 50°25' W 000°53'1211.4
2014-Jul-22 02:32N 50°14' W 000°49'1111.3
2014-Jul-22 01:32N 50°03' W 000°44'1111.7
2014-Jul-22 00:33N 49°52' W 000°38'1211.5
2014-Jul-21 23:33N 49°42' W 000°30'1111.1
2014-Jul-21 22:34N 49°32' W 000°22'1211.7
2014-Jul-21 21:34N 49°21' W 000°15'4 4.1
2014-Jul-21 20:33N 49°17' W 000°15'0 0.0
2014-Jul-21 20:18N 49°17' W 000°15'0 0.0
2014-Jul-21 19:33N 49°17' W 000°15'1212.3
2014-Jul-21 18:34N 49°29' W 000°20'1818.0
2014-Jul-21 17:33N 49°46' W 000°29'2819.4
2014-Jul-21 16:08N 50°12' W 000°45'1119.9
2014-Jul-21 15:33N 50°22' W 000°51'1919.3
2014-Jul-21 14:33N 50°41' W 000°58'9 8.9
2014-Jul-21 13:33N 50°49' W 001°06'0 0.0
2014-Jul-21 12:33N 50°49' W 001°06'5 4.7
2014-Jul-21 11:34N 50°44' W 001°04'2719.3
2014-Jul-21 10:10N 50°20' W 000°45'1219.4
2014-Jul-21 09:33N 50°09' W 000°41'2019.8
2014-Jul-21 08:33N 49°50' W 000°31'2019.9
2014-Jul-21 07:33N 49°31' W 000°20'1414.4
2014-Jul-21 06:34N 49°17' W 000°15'0 0.0
2014-Jul-21 05:34N 49°17' W 000°15'0 0.0
2014-Jul-21 04:34N 49°17' W 000°15'1414.1
2014-Jul-21 03:34N 49°31' W 000°21'1212.3
2014-Jul-21 02:34N 49°42' W 000°28'4915.9
2014-Jul-20 23:27N 50°29' W 000°53'1516.5
2014-Jul-20 22:34N 50°43' W 001°00'7 6.7
2014-Jul-20 21:33N 50°49' W 001°06'0 0.0
2014-Jul-20 20:33N 50°49' W 001°06'5 4.8
2014-Jul-20 19:34N 50°44' W 001°04'1919.5
2014-Jul-20 18:33N 50°27' W 000°50'1919.3
2014-Jul-20 17:33N 50°09' W 000°38'1919.5
2014-Jul-20 16:33N 49°50' W 000°30'1919.3
2014-Jul-20 15:33N 49°32' W 000°21'1514.9
2014-Jul-20 14:33N 49°17' W 000°15'0 0.0
2014-Jul-20 13:33N 49°17' W 000°15'2 2.3
2014-Jul-20 12:33N 49°20' W 000°14'2019.9
2014-Jul-20 11:33N 49°38' W 000°26'1919.3
2014-Jul-20 10:33N 49°56' W 000°36'2019.0
2014-Jul-20 09:31N 50°15' W 000°47'1819.2
2014-Jul-20 08:33N 50°32' W 000°57'1717.1
2014-Jul-20 07:33N 50°48' W 001°07'1 1.0
2014-Jul-20 06:33N 50°49' W 001°06'0 0.1
2014-Jul-20 05:34N 50°49' W 001°06'1212.2
2014-Jul-20 04:33N 50°37' W 000°58'2210.7
2014-Jul-20 02:29N 50°17' W 000°46'1011.2
2014-Jul-20 01:33N 50°06' W 000°43'1111.5
2014-Jul-20 00:33N 49°55' W 000°40'1111.1
2014-Jul-19 23:34N 49°45' W 000°35'1211.9
2014-Jul-19 22:34N 49°34' W 000°28'1312.6
2014-Jul-19 21:33N 49°23' W 000°17'6 6.0
2014-Jul-19 20:33N 49°17' W 000°15'0 0.0
2014-Jul-19 19:33N 49°17' W 000°15'1111.3
2014-Jul-19 18:33N 49°28' W 000°19'1919.5
2014-Jul-19 17:34N 49°46' W 000°29'  
Track history (hours):
 
Tides and Currents Weather Stations Pressure Air Temp Water Temp Dewpoint Dewpoint Depression Visibility Wind Speed Wind Dir Waves Ship Positions

Mont Saint Michel

Last reported at 2014-Jul-29 16:33 UTC. Time now 2014-Jul-29 16:53 UTC.
Position N 49°48' W 000°31'.

Length 173 m; beam 29 m.

Type: Ship. MMSI: 227023100.

Date/timePositionNaut miles runAvg speedWind from/ knotsBaromVisibWave heightAir tempDewpointWater temp
2014-Jul-29 16:33N 49°48' W 000°31'2221.8
2014-Jul-29 15:33N 49°28' W 000°18'1111.0
2014-Jul-29 14:33N 49°17' W 000°15'0 0.0
2014-Jul-29 13:33N 49°17' W 000°15'2 1.9
2014-Jul-29 12:34N 49°19' W 000°15'2019.9
2014-Jul-29 11:33N 49°38' W 000°23'4519.1
2014-Jul-29 09:11N 50°21' W 000°49'1320.2
2014-Jul-29 08:33N 50°32' W 000°56'1716.6
2014-Jul-29 07:34N 50°47' W 001°07'1 1.3
2014-Jul-29 06:34N 50°49' W 001°06'0 0.4
2014-Jul-29 05:33N 50°49' W 001°06'1313.4
2014-Jul-29 04:33N 50°36' W 000°58'1212.3
2014-Jul-29 03:33N 50°24' W 000°55'1111.2
2014-Jul-29 02:33N 50°15' W 000°45'2411.9
2014-Jul-29 00:33N 49°53' W 000°29'1111.2
2014-Jul-28 23:33N 49°43' W 000°26'1110.5
2014-Jul-28 22:33N 49°33' W 000°20'1110.8
2014-Jul-28 21:33N 49°22' W 000°15'5 5.0
2014-Jul-28 20:33N 49°17' W 000°15'0 0.0
2014-Jul-28 19:33N 49°17' W 000°15'1212.3
2014-Jul-28 18:33N 49°29' W 000°19'2019.8
2014-Jul-28 17:33N 49°47' W 000°32'3718.8
2014-Jul-28 15:33N 50°22' W 000°53'1919.0
2014-Jul-28 14:33N 50°41' W 001°01'9 8.6
2014-Jul-28 13:33N 50°49' W 001°06'0 0.0
2014-Jul-28 12:33N 50°49' W 001°06'3 3.3
2014-Jul-28 11:34N 50°45' W 001°05'5919.6
2014-Jul-28 08:33N 49°51' W 000°30'1919.4
2014-Jul-28 07:34N 49°33' W 000°20'1615.7
2014-Jul-28 06:33N 49°17' W 000°15'0 0.0
2014-Jul-28 05:33N 49°17' W 000°15'0 0.1
2014-Jul-28 04:33N 49°17' W 000°15'1817.7
2014-Jul-28 03:33N 49°34' W 000°23'1916.0
2014-Jul-28 02:23N 49°52' W 000°31'1011.5
2014-Jul-28 01:33N 50°01' W 000°36'3115.2
2014-Jul-27 23:31N 50°30' W 000°52'1515.6
2014-Jul-27 22:33N 50°44' W 001°03'5 5.5
2014-Jul-27 21:34N 50°49' W 001°06'0 0.0
2014-Jul-27 20:33N 50°49' W 001°06'5 4.9
2014-Jul-27 19:33N 50°44' W 001°03'1818.0
2014-Jul-27 18:34N 50°28' W 000°51'1918.8
2014-Jul-27 17:34N 50°10' W 000°42'1919.3
2014-Jul-27 16:34N 49°52' W 000°32'1919.4
2014-Jul-27 15:34N 49°34' W 000°21'1716.8
2014-Jul-27 14:33N 49°17' W 000°15'0 0.1
2014-Jul-27 13:33N 49°17' W 000°15'2 2.3
2014-Jul-27 12:33N 49°20' W 000°14'2020.0
2014-Jul-27 11:34N 49°38' W 000°24'4720.0
2014-Jul-27 09:14N 50°22' W 000°49'1319.8
2014-Jul-27 08:34N 50°35' W 000°57'1515.1
2014-Jul-27 07:33N 50°49' W 001°07'0 0.5
2014-Jul-27 06:33N 50°49' W 001°06'0 0.1
2014-Jul-27 05:34N 50°49' W 001°06'1212.2
2014-Jul-27 04:33N 50°38' W 000°58'1211.6
2014-Jul-27 03:33N 50°27' W 000°51'1111.3
2014-Jul-27 02:33N 50°16' W 000°46'1111.4
2014-Jul-27 01:33N 50°05' W 000°40'1211.8
2014-Jul-27 00:33N 49°54' W 000°34'1211.6
2014-Jul-26 23:33N 49°43' W 000°28'1110.9
2014-Jul-26 22:33N 49°33' W 000°22'1111.1
2014-Jul-26 21:33N 49°23' W 000°16'5 5.3
2014-Jul-26 20:33N 49°17' W 000°15'0 0.0
2014-Jul-26 19:33N 49°17' W 000°15'1211.7
2014-Jul-26 18:33N 49°29' W 000°18'2121.0
2014-Jul-26 17:33N 49°49' W 000°29'2220.3
2014-Jul-26 16:28N 50°09' W 000°42'1719.3
2014-Jul-26 15:34N 50°25' W 000°53'1918.7
2014-Jul-26 14:34N 50°43' W 001°01'6 6.4
2014-Jul-26 13:33N 50°49' W 001°06'0 0.0
2014-Jul-26 12:33N 50°49' W 001°06'3 3.5
2014-Jul-26 11:34N 50°45' W 001°05'2120.3
2014-Jul-26 10:32N 50°26' W 000°53'2119.6
2014-Jul-26 09:28N 50°07' W 000°40'1719.1
2014-Jul-26 08:33N 49°50' W 000°31'1919.1
2014-Jul-26 07:33N 49°32' W 000°21'1615.6
2014-Jul-26 06:33N 49°17' W 000°15'0 0.0
2014-Jul-26 05:34N 49°17' W 000°15'0 0.1
2014-Jul-26 04:34N 49°17' W 000°15'1716.5
2014-Jul-26 03:33N 49°33' W 000°22'1716.9
2014-Jul-26 02:33N 49°48' W 000°33'1312.7
2014-Jul-26 01:33N 50°01' W 000°39'1514.4
2014-Jul-26 00:30N 50°15' W 000°44'1717.8
2014-Jul-25 23:33N 50°31' W 000°52'1615.8
2014-Jul-25 22:34N 50°45' W 001°05'4 4.0
2014-Jul-25 21:34N 50°49' W 001°06'0 0.0
2014-Jul-25 20:33N 50°49' W 001°06'4 4.2
2014-Jul-25 19:34N 50°45' W 001°05'1818.3
2014-Jul-25 18:34N 50°28' W 000°52'2020.2
2014-Jul-25 17:34N 50°09' W 000°40'2120.6
2014-Jul-25 16:34N 49°50' W 000°29'1919.3
2014-Jul-25 15:34N 49°32' W 000°20'1514.6
2014-Jul-25 14:33N 49°17' W 000°15'0 0.0
2014-Jul-25 13:33N 49°17' W 000°15'1 1.1
2014-Jul-25 12:33N 49°18' W 000°15'1918.5
2014-Jul-25 11:34N 49°36' W 000°23'2019.2
2014-Jul-25 10:32N 49°54' W 000°34'2519.6
2014-Jul-25 09:15N 50°18' W 000°48'1420.0
2014-Jul-25 08:32N 50°32' W 000°55'1717.6
2014-Jul-25 07:33N 50°47' W 001°06'2 1.6
2014-Jul-25 06:34N 50°49' W 001°06'0 0.1
2014-Jul-25 05:34N 50°49' W 001°06'1111.5
2014-Jul-25 04:33N 50°38' W 000°58'1211.6
2014-Jul-25 03:33N 50°27' W 000°52'1211.6
2014-Jul-25 02:31N 50°16' W 000°46'1111.9
2014-Jul-25 01:33N 50°05' W 000°41'1312.4
2014-Jul-25 00:32N 49°53' W 000°34'1212.3
2014-Jul-24 23:34N 49°42' W 000°28'1212.2
2014-Jul-24 22:33N 49°30' W 000°21'1211.7
2014-Jul-24 21:33N 49°19' W 000°15'2 2.0
2014-Jul-24 20:33N 49°17' W 000°15'0 0.0
2014-Jul-24 19:33N 49°17' W 000°15'1615.7
2014-Jul-24 18:33N 49°33' W 000°20'2221.7
2014-Jul-24 17:33N 49°52' W 000°36'2221.5
2014-Jul-24 16:33N 50°11' W 000°50'2121.1
2014-Jul-24 15:33N 50°32' W 000°52'1817.9
2014-Jul-24 14:34N 50°48' W 001°07'1 1.3
2014-Jul-24 13:34N 50°49' W 001°06'0 0.0
2014-Jul-24 12:34N 50°49' W 001°06'4 3.8
2014-Jul-24 11:33N 50°45' W 001°05'2019.4
2014-Jul-24 10:30N 50°27' W 000°51'1819.2
2014-Jul-24 09:33N 50°09' W 000°41'1919.2
2014-Jul-24 08:33N 49°52' W 000°31'1918.9
2014-Jul-24 07:33N 49°34' W 000°20'1716.8
2014-Jul-24 06:33N 49°17' W 000°15'0 0.1
2014-Jul-24 05:33N 49°17' W 000°15'0 0.1
2014-Jul-24 04:33N 49°17' W 000°15'1716.7
2014-Jul-24 03:34N 49°33' W 000°22'1716.7
2014-Jul-24 02:34N 49°49' W 000°32'1716.6
2014-Jul-24 01:31N 50°05' W 000°41'1816.9
2014-Jul-24 00:27N 50°22' W 000°51'1617.3
2014-Jul-23 23:34N 50°37' W 000°58'1312.8
2014-Jul-23 22:33N 50°48' W 001°07'1 0.9
2014-Jul-23 21:33N 50°49' W 001°06'0 0.0
2014-Jul-23 20:34N 50°49' W 001°06'5 4.9
2014-Jul-23 19:34N 50°44' W 001°04'1717.4
2014-Jul-23 18:33N 50°28' W 000°53'1918.8
2014-Jul-23 17:33N 50°10' W 000°42'1918.6
2014-Jul-23 16:33N 49°53' W 000°33'1918.7
2014-Jul-23 15:33N 49°35' W 000°23'1818.0
2014-Jul-23 14:33N 49°18' W 000°15'1 0.8
2014-Jul-23 13:34N 49°17' W 000°15'0 0.0
2014-Jul-23 12:34N 49°17' W 000°15'0 0.0
2014-Jul-23 11:33N 49°17' W 000°15'0 0.0
2014-Jul-23 10:33N 49°17' W 000°15'0 0.0
2014-Jul-23 09:33N 49°17' W 000°15'0 0.0
2014-Jul-23 08:33N 49°17' W 000°15'0 0.0
2014-Jul-23 07:34N 49°17' W 000°15'0 0.0
2014-Jul-23 06:33N 49°17' W 000°15'0 0.0
2014-Jul-23 05:33N 49°17' W 000°15'9 8.8
2014-Jul-23 04:33N 49°26' W 000°18'1313.2
2014-Jul-23 03:33N 49°38' W 000°24'1312.6
2014-Jul-23 02:33N 49°50' W 000°30'1712.2
2014-Jul-23 01:08N 50°07' W 000°40'1114.8
2014-Jul-23 00:25N 50°17' W 000°46'1416.8
2014-Jul-22 23:33N 50°30' W 000°54'1514.9
2014-Jul-22 22:34N 50°44' W 001°03'5 5.2
2014-Jul-22 21:34N 50°49' W 001°06'0 0.0
2014-Jul-22 20:34N 50°49' W 001°06'4 3.6
2014-Jul-22 19:34N 50°45' W 001°05'1919.4
2014-Jul-22 18:34N 50°27' W 000°53'2420.4
2014-Jul-22 17:24N 50°05' W 000°41'1719.9
2014-Jul-22 16:33N 49°49' W 000°31'2020.1
2014-Jul-22 15:34N 49°31' W 000°19'1413.9
2014-Jul-22 14:33N 49°17' W 000°15'0 0.0
2014-Jul-22 13:33N 49°17' W 000°15'2 2.2
2014-Jul-22 12:33N 49°20' W 000°14'2020.2
2014-Jul-22 11:34N 49°39' W 000°24'6020.0
2014-Jul-22 08:34N 50°35' W 000°56'1515.0
2014-Jul-22 07:33N 50°49' W 001°06'0 0.0
2014-Jul-22 06:33N 50°49' W 001°06'0 0.1
2014-Jul-22 05:34N 50°49' W 001°06'1313.3
2014-Jul-22 04:34N 50°36' W 000°58'1111.4
2014-Jul-22 03:34N 50°25' W 000°53'1211.4
2014-Jul-22 02:32N 50°14' W 000°49'1111.3
2014-Jul-22 01:32N 50°03' W 000°44'1111.7
2014-Jul-22 00:33N 49°52' W 000°38'1211.5
2014-Jul-21 23:33N 49°42' W 000°30'1111.1
2014-Jul-21 22:34N 49°32' W 000°22'1211.7
2014-Jul-21 21:34N 49°21' W 000°15'4 4.1
2014-Jul-21 20:33N 49°17' W 000°15'0 0.0
2014-Jul-21 20:18N 49°17' W 000°15'0 0.0
2014-Jul-21 19:33N 49°17' W 000°15'1212.3
2014-Jul-21 18:34N 49°29' W 000°20'1818.0
2014-Jul-21 17:33N 49°46' W 000°29'2819.4
2014-Jul-21 16:08N 50°12' W 000°45'1119.9
2014-Jul-21 15:33N 50°22' W 000°51'1919.3
2014-Jul-21 14:33N 50°41' W 000°58'9 8.9
2014-Jul-21 13:33N 50°49' W 001°06'0 0.0
2014-Jul-21 12:33N 50°49' W 001°06'5 4.7
2014-Jul-21 11:34N 50°44' W 001°04'2719.3
2014-Jul-21 10:10N 50°20' W 000°45'1219.4
2014-Jul-21 09:33N 50°09' W 000°41'2019.8
2014-Jul-21 08:33N 49°50' W 000°31'2019.9
2014-Jul-21 07:33N 49°31' W 000°20'1414.4
2014-Jul-21 06:34N 49°17' W 000°15'0 0.0
2014-Jul-21 05:34N 49°17' W 000°15'0 0.0
2014-Jul-21 04:34N 49°17' W 000°15'1414.1
2014-Jul-21 03:34N 49°31' W 000°21'1212.3
2014-Jul-21 02:34N 49°42' W 000°28'4915.9
2014-Jul-20 23:27N 50°29' W 000°53'1516.5
2014-Jul-20 22:34N 50°43' W 001°00'7 6.7
2014-Jul-20 21:33N 50°49' W 001°06'0 0.0
2014-Jul-20 20:33N 50°49' W 001°06'5 4.8
2014-Jul-20 19:34N 50°44' W 001°04'1919.5
2014-Jul-20 18:33N 50°27' W 000°50'1919.3
2014-Jul-20 17:33N 50°09' W 000°38'1919.5
2014-Jul-20 16:33N 49°50' W 000°30'1919.3
2014-Jul-20 15:33N 49°32' W 000°21'1514.9
2014-Jul-20 14:33N 49°17' W 000°15'0 0.0
2014-Jul-20 13:33N 49°17' W 000°15'2 2.3
2014-Jul-20 12:33N 49°20' W 000°14'2019.9
2014-Jul-20 11:33N 49°38' W 000°26'1919.3
2014-Jul-20 10:33N 49°56' W 000°36'2019.0
2014-Jul-20 09:31N 50°15' W 000°47'1819.2
2014-Jul-20 08:33N 50°32' W 000°57'1717.1
2014-Jul-20 07:33N 50°48' W 001°07'1 1.0
2014-Jul-20 06:33N 50°49' W 001°06'0 0.1
2014-Jul-20 05:34N 50°49' W 001°06'1212.2
2014-Jul-20 04:33N 50°37' W 000°58'2210.7
2014-Jul-20 02:29N 50°17' W 000°46'1011.2
2014-Jul-20 01:33N 50°06' W 000°43'1111.5
2014-Jul-20 00:33N 49°55' W 000°40'1111.1
2014-Jul-19 23:34N 49°45' W 000°35'1211.9
2014-Jul-19 22:34N 49°34' W 000°28'1312.6
2014-Jul-19 21:33N 49°23' W 000°17'6 6.0
2014-Jul-19 20:33N 49°17' W 000°15'0 0.0
2014-Jul-19 19:33N 49°17' W 000°15'1111.3
2014-Jul-19 18:33N 49°28' W 000°19'1919.5
2014-Jul-19 17:34N 49°46' W 000°29'  

Dump ship's entire track history